Terminal Aerodrome Forecast
Issued by NWS Los Angeles, CA

Home | Current Version | Previous Version | Text Only | Print | Product List | Glossary On
Versions: 1 2 3 4 5 6 7 8 9 10 11 12 13 14 15 16 17 18 19 20 21 22 23 24
000
FTUS46 KLOX 041311 AAA
TAFSMX
TAF AMD
KSMX 041311Z 0413/0512 30007KT P6SM BKN021
     FM041800 28006KT P6SM SCT025
     FM042100 30015KT P6SM SKC
     FM050300 30008KT P6SM SKC
     FM050700 VRB03KT P6SM BKN015=

USA.gov is the U.S. government's official web portal to all federal, state and local government web resources and services.